createdAt,value
2023-03-22T00:00:13.711Z,4.60
2023-03-22T00:02:40.190Z,5.00
2023-03-22T00:05:06.973Z,4.90
2023-03-22T00:07:33.438Z,5.35
2023-03-22T00:09:59.864Z,5.15
2023-03-22T00:12:26.297Z,5.20
2023-03-22T00:14:53.546Z,5.75
2023-03-22T00:17:19.971Z,4.88
2023-03-22T00:19:47.358Z,6.22
2023-03-22T00:22:14.732Z,5.93
2023-03-22T00:24:41.168Z,6.03
2023-03-22T00:27:07.604Z,6.85
2023-03-22T00:29:34.017Z,6.80
2023-03-22T00:32:00.457Z,6.43
2023-03-22T00:34:31.448Z,7.25
2023-03-22T00:37:00.301Z,7.28
2023-03-22T00:39:27.028Z,6.63
2023-03-22T00:41:53.474Z,6.78
2023-03-22T00:44:20.008Z,7.22
2023-03-22T00:46:46.413Z,7.20
2023-03-22T00:49:12.820Z,6.50
2023-03-22T00:51:39.236Z,7.20
2023-03-22T00:54:06.008Z,7.30
2023-03-22T00:56:33.809Z,7.68
2023-03-22T00:59:00.310Z,7.93
2023-03-22T01:01:26.738Z,7.63
2023-03-22T01:03:53.266Z,7.57
2023-03-22T01:06:19.737Z,7.95
2023-03-22T01:08:46.167Z,7.30
2023-03-22T01:11:12.890Z,7.78
2023-03-22T01:13:39.415Z,7.65
2023-03-22T01:16:07.174Z,8.32
2023-03-22T01:18:33.711Z,8.05
2023-03-22T01:21:00.314Z,7.35
2023-03-22T01:23:26.790Z,8.45
2023-03-22T01:25:53.214Z,8.57
2023-03-22T01:28:19.638Z,8.85
2023-03-22T01:30:46.179Z,8.48
2023-03-22T01:33:12.613Z,8.77
2023-03-22T01:35:39.243Z,9.23
2023-03-22T01:38:05.756Z,8.13
2023-03-22T01:40:33.071Z,8.55
2023-03-22T01:42:59.815Z,8.30
2023-03-22T01:45:47.505Z,8.00
2023-03-22T01:48:18.718Z,8.68
2023-03-22T01:50:56.032Z,9.70
2023-03-22T01:53:25.214Z,9.00
2023-03-22T01:55:52.329Z,8.55
2023-03-22T01:58:18.829Z,9.07
2023-03-22T02:00:47.732Z,8.88
2023-03-22T02:03:15.473Z,8.30
2023-03-22T02:05:42.051Z,9.18
2023-03-22T02:08:08.857Z,8.95
2023-03-22T02:10:35.278Z,9.73
2023-03-22T02:13:23.048Z,9.73
2023-03-22T02:16:22.488Z,9.02
2023-03-22T02:19:06.124Z,10.25
2023-03-22T02:21:52.476Z,9.30
2023-03-22T02:24:49.872Z,9.65
2023-03-22T02:27:45.146Z,9.40
2023-03-22T02:30:35.297Z,9.35
2023-03-22T02:33:24.819Z,9.02
2023-03-22T02:36:19.627Z,8.90
2023-03-22T02:39:07.059Z,9.38
2023-03-22T02:41:42.832Z,9.95
2023-03-22T02:44:28.011Z,9.68
2023-03-22T02:47:04.840Z,9.40
2023-03-22T02:49:33.831Z,10.00
2023-03-22T02:52:17.458Z,10.00
2023-03-22T02:54:56.672Z,9.20
2023-03-22T02:57:30.700Z,9.43
2023-03-22T02:59:58.289Z,10.07
2023-03-22T03:02:26.643Z,9.80
2023-03-22T03:04:54.148Z,10.20
2023-03-22T03:07:22.813Z,10.45
2023-03-22T03:09:50.064Z,9.98
2023-03-22T03:12:28.034Z,9.85
2023-03-22T03:14:54.713Z,10.02
2023-03-22T03:17:46.201Z,10.55
2023-03-22T03:20:30.318Z,10.20
2023-03-22T03:23:07.660Z,10.77
2023-03-22T03:25:43.595Z,11.15
2023-03-22T03:28:38.429Z,11.50
2023-03-22T03:31:16.586Z,11.07
2023-03-22T03:34:13.068Z,11.23
2023-03-22T03:36:42.421Z,11.93
2023-03-22T03:39:11.618Z,11.93
2023-03-22T03:41:38.591Z,11.50
2023-03-22T03:44:05.291Z,11.00
2023-03-22T03:46:31.791Z,11.15
2023-03-22T03:48:58.712Z,11.75
2023-03-22T03:51:27.234Z,12.07
2023-03-22T03:53:53.718Z,10.88
2023-03-22T03:56:20.369Z,12.15
2023-03-22T03:58:46.892Z,10.88
2023-03-22T04:01:13.299Z,10.57
2023-03-22T04:03:39.734Z,11.48
2023-03-22T04:06:06.560Z,10.88
2023-03-22T04:08:32.989Z,10.63
2023-03-22T04:10:59.406Z,10.60
2023-03-22T04:13:25.852Z,10.68
2023-03-22T04:15:53.486Z,10.95
2023-03-22T04:18:21.280Z,10.88
2023-03-22T04:20:49.519Z,11.57
2023-03-22T04:23:16.004Z,11.32
2023-03-22T04:25:43.485Z,11.23
2023-03-22T04:28:09.941Z,11.02
2023-03-22T04:30:38.718Z,10.68
2023-03-22T04:33:08.273Z,11.18
2023-03-22T04:35:35.289Z,10.05
2023-03-22T04:38:01.877Z,10.13
2023-03-22T04:40:31.547Z,10.75
2023-03-22T04:42:58.881Z,10.57
2023-03-22T04:45:29.109Z,10.18
2023-03-22T04:47:56.083Z,10.30
2023-03-22T04:50:22.553Z,10.80
2023-03-22T04:52:49.988Z,10.20
2023-03-22T04:55:16.696Z,12.40
2023-03-22T04:57:43.219Z,14.15
2023-03-22T05:00:09.990Z,17.17
2023-03-22T05:02:41.107Z,15.38
2023-03-22T05:05:07.835Z,13.80
2023-03-22T05:07:34.272Z,12.48
2023-03-22T05:10:01.774Z,11.65
2023-03-22T05:12:28.450Z,11.13
2023-03-22T05:14:55.940Z,11.25
2023-03-22T05:17:22.668Z,10.90
2023-03-22T05:19:49.158Z,11.73
2023-03-22T05:22:15.569Z,11.48
2023-03-22T05:24:42.040Z,11.18
2023-03-22T05:27:08.474Z,11.90
2023-03-22T05:29:36.735Z,11.00
2023-03-22T05:32:04.190Z,11.35
2023-03-22T05:34:35.585Z,11.88
2023-03-22T05:37:02.727Z,11.02
2023-03-22T05:39:29.283Z,11.00
2023-03-22T05:41:55.705Z,10.02
2023-03-22T05:44:22.113Z,10.30
2023-03-22T05:46:48.582Z,11.75
2023-03-22T05:49:15.322Z,11.07
2023-03-22T05:51:42.572Z,10.70
2023-03-22T05:54:09.645Z,12.13
2023-03-22T05:56:36.273Z,11.63
2023-03-22T05:59:04.191Z,11.40
2023-03-22T06:01:30.776Z,11.85
2023-03-22T06:03:57.205Z,10.95
2023-03-22T06:06:23.873Z,11.25
2023-03-22T06:08:50.326Z,10.73
2023-03-22T06:11:18.463Z,11.10
2023-03-22T06:13:44.930Z,11.45
2023-03-22T06:16:11.471Z,11.15
2023-03-22T06:18:37.984Z,11.02
2023-03-22T06:21:04.721Z,10.70
2023-03-22T06:23:31.130Z,11.25
2023-03-22T06:25:57.540Z,11.45
2023-03-22T06:28:24.016Z,10.90
2023-03-22T06:30:50.740Z,11.60
2023-03-22T06:33:17.174Z,11.70
2023-03-22T06:35:43.696Z,11.27
2023-03-22T06:38:10.328Z,11.25
2023-03-22T06:40:37.906Z,11.15
2023-03-22T06:43:06.940Z,11.20
2023-03-22T06:45:33.623Z,10.73
2023-03-22T06:48:00.829Z,10.70
2023-03-22T06:50:28.050Z,11.02
2023-03-22T06:52:55.061Z,10.85
2023-03-22T06:55:21.582Z,10.93
2023-03-22T06:57:48.037Z,10.57
2023-03-22T07:00:15.212Z,10.88
2023-03-22T07:02:41.643Z,11.18
2023-03-22T07:05:08.393Z,11.35
2023-03-22T07:07:34.810Z,9.90
2023-03-22T07:10:01.210Z,10.90
2023-03-22T07:12:27.630Z,11.25
2023-03-22T07:14:54.209Z,10.68
2023-03-22T07:17:20.684Z,10.18
2023-03-22T07:19:47.142Z,10.57
2023-03-22T07:22:13.583Z,10.48
2023-03-22T07:24:50.267Z,10.40
2023-03-22T07:27:22.396Z,11.25
2023-03-22T07:29:48.814Z,11.27
2023-03-22T07:32:16.341Z,10.40
2023-03-22T07:34:42.868Z,10.55
2023-03-22T07:37:09.494Z,11.25
2023-03-22T07:39:36.210Z,9.98
2023-03-22T07:42:03.105Z,11.35
2023-03-22T07:44:29.593Z,10.50
2023-03-22T07:46:56.442Z,11.52
2023-03-22T07:49:22.941Z,10.85
2023-03-22T07:51:49.382Z,11.00
2023-03-22T07:54:32.147Z,10.77
2023-03-22T07:56:59.719Z,10.95
2023-03-22T07:59:26.285Z,11.50
2023-03-22T08:01:52.756Z,10.60
2023-03-22T08:04:20.895Z,10.50
2023-03-22T08:06:47.353Z,10.90
2023-03-22T08:09:13.936Z,11.32
2023-03-22T08:11:40.437Z,10.85
2023-03-22T08:14:06.873Z,10.73
2023-03-22T08:16:33.379Z,10.02
2023-03-22T08:18:59.922Z,11.75
2023-03-22T08:21:27.392Z,10.88
2023-03-22T08:23:53.918Z,10.32
2023-03-22T08:26:22.106Z,10.00
2023-03-22T08:28:48.547Z,10.77
2023-03-22T08:31:16.982Z,10.75
2023-03-22T08:33:44.298Z,9.95
2023-03-22T08:36:14.365Z,10.27
2023-03-22T08:38:42.374Z,9.77
2023-03-22T08:41:08.859Z,11.27
2023-03-22T08:43:35.350Z,9.63
2023-03-22T08:46:01.911Z,10.60
2023-03-22T08:48:31.804Z,9.52
2023-03-22T08:50:58.476Z,9.48
2023-03-22T08:53:24.933Z,9.30
2023-03-22T08:55:51.348Z,9.73
2023-03-22T08:58:19.971Z,8.70
2023-03-22T09:00:49.314Z,9.38
2023-03-22T09:03:16.787Z,9.70
2023-03-22T09:05:43.692Z,9.30
2023-03-22T09:08:18.160Z,9.57
2023-03-22T09:10:47.946Z,9.48
2023-03-22T09:13:16.452Z,9.18
2023-03-22T09:15:44.803Z,9.30
2023-03-22T09:18:11.759Z,8.88
2023-03-22T09:20:38.867Z,9.05
2023-03-22T09:23:05.782Z,9.18
2023-03-22T09:25:32.244Z,8.48
2023-03-22T09:27:58.664Z,8.90
2023-03-22T09:30:25.161Z,8.45
2023-03-22T09:32:51.604Z,8.52
2023-03-22T09:35:18.073Z,8.20
2023-03-22T09:37:45.461Z,8.93
2023-03-22T09:40:12.762Z,9.20
2023-03-22T09:42:42.701Z,8.00
2023-03-22T09:45:39.578Z,8.30
2023-03-22T09:48:31.536Z,9.07
2023-03-22T09:51:00.610Z,8.68
2023-03-22T09:53:28.186Z,8.48
2023-03-22T09:56:06.703Z,8.38
2023-03-22T09:58:41.299Z,6.80
2023-03-22T10:01:37.330Z,6.88
2023-03-22T10:04:43.243Z,7.70
2023-03-22T10:07:21.578Z,6.75
2023-03-22T10:10:12.064Z,6.40
2023-03-22T10:13:37.129Z,6.07
2023-03-22T10:16:06.904Z,6.30
2023-03-22T10:18:36.436Z,6.43
2023-03-22T10:21:05.115Z,6.00
2023-03-22T10:23:39.250Z,6.50
2023-03-22T10:26:07.040Z,5.60
2023-03-22T10:28:41.788Z,6.05
2023-03-22T10:31:14.410Z,6.18
2023-03-22T10:34:02.717Z,5.88
2023-03-22T10:36:34.672Z,6.07
2023-03-22T10:39:06.162Z,6.15
2023-03-22T10:41:33.814Z,5.30
2023-03-22T10:44:02.250Z,5.00
2023-03-22T10:46:37.232Z,5.40
2023-03-22T10:49:05.090Z,5.15
2023-03-22T10:51:37.063Z,4.40
2023-03-22T10:54:05.546Z,4.65
2023-03-22T10:56:32.308Z,4.60
2023-03-22T10:58:58.825Z,4.10
2023-03-22T11:01:28.310Z,4.45
2023-03-22T11:04:03.869Z,4.10
2023-03-22T11:06:36.954Z,3.33
2023-03-22T11:09:16.660Z,3.45
2023-03-22T11:11:54.581Z,3.40
2023-03-22T11:14:32.428Z,3.50
2023-03-22T11:17:20.224Z,3.53
2023-03-22T11:20:01.303Z,3.67
2023-03-22T11:22:37.352Z,3.10
2023-03-22T11:25:09.550Z,2.90
2023-03-22T11:27:37.025Z,2.67
2023-03-22T11:30:20.214Z,2.75
2023-03-22T11:32:46.924Z,2.88
2023-03-22T11:35:16.301Z,3.00
2023-03-22T11:37:44.821Z,2.60
2023-03-22T11:40:28.851Z,2.08
2023-03-22T11:42:57.152Z,2.42
2023-03-22T11:45:31.656Z,2.50
2023-03-22T11:48:09.927Z,2.22
2023-03-22T11:50:38.442Z,2.30
2023-03-22T11:53:08.818Z,2.58
2023-03-22T11:55:36.445Z,2.67
2023-03-22T11:58:04.141Z,2.50
2023-03-22T12:00:33.054Z,2.20
2023-03-22T12:03:16.568Z,2.30
2023-03-22T12:05:44.798Z,2.25
2023-03-22T12:08:39.769Z,2.63
2023-03-22T12:11:08.696Z,2.40
2023-03-22T12:13:44.124Z,2.60
2023-03-22T12:16:13.301Z,3.03
2023-03-22T12:18:46.818Z,2.90
2023-03-22T12:21:13.216Z,2.67
2023-03-22T12:23:39.869Z,2.40
2023-03-22T12:26:12.336Z,2.55
2023-03-22T12:28:52.626Z,2.60
2023-03-22T12:31:22.587Z,2.60
2023-03-22T12:33:51.513Z,2.22
2023-03-22T12:36:20.897Z,2.13
2023-03-22T12:38:56.803Z,2.47
2023-03-22T12:41:35.194Z,2.35
2023-03-22T12:44:03.851Z,2.15
2023-03-22T12:46:44.102Z,2.58
2023-03-22T12:49:32.378Z,2.30
2023-03-22T12:52:11.640Z,2.08
2023-03-22T12:54:38.287Z,2.67
2023-03-22T12:57:06.001Z,2.75
2023-03-22T12:59:32.786Z,2.70
2023-03-22T13:02:04.589Z,2.80
2023-03-22T13:04:37.043Z,2.47
2023-03-22T13:07:14.828Z,2.38
2023-03-22T13:09:43.186Z,2.63
2023-03-22T13:12:18.709Z,3.00
2023-03-22T13:14:51.346Z,3.55
2023-03-22T13:17:23.776Z,3.00
2023-03-22T13:20:07.940Z,3.17
2023-03-22T13:22:37.636Z,2.92
2023-03-22T13:25:10.834Z,2.80
2023-03-22T13:27:41.725Z,2.92
2023-03-22T13:30:17.345Z,3.70
2023-03-22T13:33:08.740Z,3.38
2023-03-22T13:35:45.129Z,2.97
2023-03-22T13:38:42.611Z,3.10
2023-03-22T13:41:30.003Z,3.20
2023-03-22T13:43:58.102Z,3.05
2023-03-22T13:46:43.265Z,2.92
2023-03-22T13:49:20.546Z,3.05
2023-03-22T13:51:47.293Z,3.13
2023-03-22T13:54:13.619Z,3.00
2023-03-22T13:57:00.751Z,2.92
2023-03-22T13:59:27.399Z,3.05
2023-03-22T14:02:11.977Z,3.30
2023-03-22T14:04:50.916Z,3.22
2023-03-22T14:07:33.356Z,3.30
2023-03-22T14:10:06.498Z,3.00
2023-03-22T14:12:45.176Z,3.10
2023-03-22T14:15:17.029Z,2.90
2023-03-22T14:17:47.735Z,2.80
2023-03-22T14:20:19.257Z,3.08
